SDM1832 UUEE-UMMS
Flight info
| Callsign | SDM1832 |
|---|---|
| Flight time | N/A |
| Altitude | 36000 |
| Route | LIDRI3H LIDRI T781 REPNU N858 VEPIS T526 RUHAL RUHAL2H |
| Aircraft | B77W/H-SDE1E2E3FGHIJ2J3J4J5M1RWXY/LB1D1 |
Departure
| Time | 2026-05-05 10:42 |
|---|---|
| Airport | Sheremetyevo International Airport (UUEE) |
Arrival
| Time | N/A |
|---|---|
| Airport | Minsk National Airport (UMMS) |
| Time | Latitude | Longitude | Altitude | Speed | Heading |
|---|---|---|---|---|---|
| 2026-05-05 10:06 | 55.96513 | 37.40662 | 647 ft | 0 kts | 256° |
| 2026-05-05 10:24 | 55.96516 | 37.40683 | 647 ft | 2 kts | 245° |
| 2026-05-05 10:24 | 55.96524 | 37.40706 | 647 ft | 2 kts | 228° |
| 2026-05-05 10:25 | 55.96535 | 37.40725 | 647 ft | 2 kts | 214° |
| 2026-05-05 10:25 | 55.96548 | 37.40738 | 647 ft | 2 kts | 201° |
| 2026-05-05 10:25 | 55.96562 | 37.40745 | 647 ft | 2 kts | 186° |
| 2026-05-05 10:25 | 55.96577 | 37.40746 | 647 ft | 2 kts | 172° |
| 2026-05-05 10:26 | 55.96592 | 37.40740 | 647 ft | 2 kts | 161° |
| 2026-05-05 10:26 | 55.96606 | 37.40732 | 647 ft | 2 kts | 162° |
| 2026-05-05 10:26 | 55.96621 | 37.40724 | 647 ft | 2 kts | 164° |
| 2026-05-05 10:26 | 55.96635 | 37.40717 | 647 ft | 2 kts | 164° |
| 2026-05-05 10:27 | 55.96649 | 37.40710 | 647 ft | 2 kts | 164° |
| 2026-05-05 10:27 | 55.96663 | 37.40703 | 647 ft | 2 kts | 158° |
| 2026-05-05 10:27 | 55.96677 | 37.40691 | 647 ft | 2 kts | 143° |
| 2026-05-05 10:27 | 55.96688 | 37.40673 | 647 ft | 2 kts | 132° |
| 2026-05-05 10:28 | 55.96697 | 37.40653 | 647 ft | 2 kts | 120° |
| 2026-05-05 10:28 | 55.96704 | 37.40628 | 647 ft | 2 kts | 109° |
| 2026-05-05 10:28 | 55.96708 | 37.40602 | 647 ft | 2 kts | 97° |
| 2026-05-05 10:28 | 55.96709 | 37.40577 | 647 ft | 2 kts | 86° |
| 2026-05-05 10:29 | 55.96706 | 37.40550 | 647 ft | 2 kts | 74° |
| 2026-05-05 10:29 | 55.96702 | 37.40526 | 647 ft | 0 kts | 72° |
| 2026-05-05 10:29 | 55.96702 | 37.40525 | 647 ft | 0 kts | 72° |
| 2026-05-05 10:35 | 55.96704 | 37.40536 | 647 ft | 2 kts | 75° |
| 2026-05-05 10:35 | 55.96716 | 37.40597 | 647 ft | 7 kts | 58° |
| 2026-05-05 10:36 | 55.96741 | 37.40630 | 647 ft | 4 kts | 18° |
| 2026-05-05 10:36 | 55.96788 | 37.40675 | 647 ft | 14 kts | 41° |
| 2026-05-05 10:36 | 55.96832 | 37.40847 | 647 ft | 15 kts | 75° |
| 2026-05-05 10:36 | 55.96861 | 37.41038 | 647 ft | 16 kts | 74° |
| 2026-05-05 10:37 | 55.96891 | 37.41234 | 647 ft | 16 kts | 74° |
| 2026-05-05 10:37 | 55.96922 | 37.41431 | 647 ft | 16 kts | 74° |
| 2026-05-05 10:37 | 55.96960 | 37.41679 | 647 ft | 23 kts | 74° |
| 2026-05-05 10:37 | 55.97003 | 37.41967 | 647 ft | 23 kts | 76° |
| 2026-05-05 10:38 | 55.97041 | 37.42256 | 647 ft | 23 kts | 75° |
| 2026-05-05 10:38 | 55.97085 | 37.42537 | 647 ft | 23 kts | 73° |
| 2026-05-05 10:38 | 55.97129 | 37.42818 | 647 ft | 23 kts | 75° |
| 2026-05-05 10:38 | 55.97179 | 37.43159 | 647 ft | 42 kts | 74° |
| 2026-05-05 10:39 | 55.97265 | 37.43718 | 647 ft | 46 kts | 75° |
| 2026-05-05 10:39 | 55.97343 | 37.44252 | 647 ft | 33 kts | 73° |
| 2026-05-05 10:39 | 55.97429 | 37.44410 | 647 ft | 0 kts | 2° |
| 2026-05-05 10:40 | 55.97450 | 37.44414 | 647 ft | 4 kts | 0° |
| 2026-05-05 10:41 | 55.97528 | 37.44381 | 647 ft | 11 kts | 333° |
| 2026-05-05 10:41 | 55.97555 | 37.44264 | 647 ft | 10 kts | 263° |
| 2026-05-05 10:41 | 55.97544 | 37.44171 | 647 ft | 0 kts | 255° |
| 2026-05-05 10:41 | 55.97541 | 37.44156 | 647 ft | 8 kts | 255° |
| 2026-05-05 10:42 | 55.97216 | 37.41983 | 650 ft | 170 kts | 255° |
| 2026-05-05 10:42 | 55.96922 | 37.39845 | 1439 ft | 181 kts | 258° |
| 2026-05-05 10:42 | 55.96661 | 37.37778 | 2339 ft | 178 kts | 259° |
| 2026-05-05 10:43 | 55.96406 | 37.35483 | 2721 ft | 192 kts | 260° |
| 2026-05-05 10:43 | 55.96095 | 37.33119 | 3289 ft | 195 kts | 255° |
| 2026-05-05 10:43 | 55.95723 | 37.30939 | 4243 ft | 174 kts | 252° |
| 2026-05-05 10:43 | 55.95366 | 37.28871 | 4575 ft | 190 kts | 254° |
| 2026-05-05 10:44 | 55.94968 | 37.26410 | 4656 ft | 222 kts | 256° |
| 2026-05-05 10:44 | 55.94677 | 37.23511 | 4753 ft | 253 kts | 262° |
| 2026-05-05 10:44 | 55.94372 | 37.20256 | 5133 ft | 273 kts | 260° |
| 2026-05-05 10:44 | 55.94024 | 37.16948 | 5967 ft | 274 kts | 260° |
| 2026-05-05 10:45 | 55.93679 | 37.13652 | 6807 ft | 274 kts | 259° |
| 2026-05-05 10:45 | 55.93319 | 37.10294 | 7579 ft | 277 kts | 259° |
| 2026-05-05 10:45 | 55.92958 | 37.06933 | 8313 ft | 280 kts | 259° |
| 2026-05-05 10:45 | 55.92588 | 37.03518 | 9046 ft | 283 kts | 259° |
| 2026-05-05 10:46 | 55.92215 | 37.00077 | 9768 ft | 286 kts | 259° |
| 2026-05-05 10:46 | 55.91836 | 36.96593 | 10379 ft | 294 kts | 259° |
| 2026-05-05 10:46 | 55.91425 | 36.92800 | 10410 ft | 324 kts | 259° |
| 2026-05-05 10:46 | 55.90981 | 36.88734 | 10796 ft | 341 kts | 259° |
| 2026-05-05 10:47 | 55.90528 | 36.84605 | 11635 ft | 342 kts | 259° |
| 2026-05-05 10:47 | 55.90073 | 36.80469 | 12446 ft | 343 kts | 259° |
| 2026-05-05 10:47 | 55.89617 | 36.76260 | 13114 ft | 344 kts | 261° |
| 2026-05-05 10:47 | 55.89390 | 36.72070 | 13672 ft | 344 kts | 269° |
| 2026-05-05 10:48 | 55.89247 | 36.67798 | 13985 ft | 351 kts | 261° |
| 2026-05-05 10:48 | 55.88563 | 36.63586 | 14399 ft | 356 kts | 252° |
| 2026-05-05 10:48 | 55.87865 | 36.59343 | 14922 ft | 356 kts | 257° |
| 2026-05-05 10:48 | 55.87313 | 36.55050 | 15293 ft | 358 kts | 258° |
| 2026-05-05 10:49 | 55.86777 | 36.50684 | 15538 ft | 363 kts | 259° |
| 2026-05-05 10:49 | 55.86276 | 36.46420 | 16623 ft | 338 kts | 259° |
| 2026-05-05 10:49 | 55.85815 | 36.42433 | 17051 ft | 336 kts | 259° |
| 2026-05-05 10:49 | 55.85337 | 36.38272 | 17028 ft | 346 kts | 259° |
| 2026-05-05 10:50 | 55.84848 | 36.34000 | 17040 ft | 353 kts | 259° |
| 2026-05-05 10:50 | 55.84352 | 36.29687 | 17048 ft | 359 kts | 259° |
| 2026-05-05 10:50 | 55.83852 | 36.25324 | 17054 ft | 364 kts | 259° |
| 2026-05-05 10:50 | 55.83340 | 36.20879 | 17059 ft | 368 kts | 259° |
| 2026-05-05 10:51 | 55.82827 | 36.16444 | 17111 ft | 370 kts | 259° |
| 2026-05-05 10:51 | 55.82305 | 36.11951 | 17193 ft | 367 kts | 259° |
| 2026-05-05 10:51 | 55.81792 | 36.07572 | 17643 ft | 354 kts | 259° |
| 2026-05-05 10:51 | 55.81300 | 36.03380 | 18109 ft | 340 kts | 259° |
| 2026-05-05 10:52 | 55.80828 | 35.99379 | 18568 ft | 325 kts | 259° |
| 2026-05-05 10:52 | 55.80380 | 35.95580 | 19018 ft | 308 kts | 259° |
| 2026-05-05 10:52 | 55.79951 | 35.91949 | 19466 ft | 290 kts | 259° |
| 2026-05-05 10:52 | 55.79552 | 35.88585 | 19890 ft | 266 kts | 259° |
| 2026-05-05 10:53 | 55.79196 | 35.85597 | 20289 ft | 229 kts | 257° |
| 2026-05-05 10:53 | 55.78853 | 35.83111 | 20501 ft | 195 kts | 254° |
| 2026-05-05 10:53 | 55.78505 | 35.80664 | 19361 ft | 229 kts | 260° |
| 2026-05-05 10:53 | 55.78251 | 35.77866 | 18784 ft | 223 kts | 259° |
| 2026-05-05 10:54 | 55.77880 | 35.75359 | 18697 ft | 201 kts | 255° |
| 2026-05-05 10:54 | 55.77877 | 35.72886 | 17482 ft | 235 kts | 309° |
| 2026-05-05 10:54 | 55.78670 | 35.73144 | 12185 ft | 368 kts | 140° |
| 2026-05-05 10:54 | 55.76850 | 35.71503 | 10975 ft | 335 kts | 251° |
| 2026-05-05 10:55 | 55.76718 | 35.70712 | 11461 ft | 314 kts | 258° |